Terminal Aerodrome Forecast
Issued by NWS

Home | Current Version | Previous Version | Text Only | Print | Product List | Glossary On
Versions: 1 2 3 4 5 6 7 8 9 10 11 12 13 14 15 16 17 18 19 20 21 22 23 24 25 26
000
FTUS43 KGRR 260540
TAFBTL
TAF
KBTL 260540Z 2606/2706 25007KT P6SM OVC035
     FM260900 22007KT P6SM BKN040
     FM261600 22018G25KT P6SM BKN050
     FM270000 21010KT P6SM OVC050=

USA.gov is the U.S. government's official web portal to all federal, state and local government web resources and services.